Aeroporto :
LOGIN :

Iscrizione | Disclaimer

   EN    FR    IT 

 










Sommario :    VFR   VFR Marginale   IFR   IFR Intensivo   IFR Molto Intensivo
Visibilità : 
Base nubi : 
>= 8 km
>= 3000ft
5 / 8 km
1000 / 3000 ft
1500m / 5 km
500 / 1000 ft
800 / 1500m
200 / 500 ft
< 800m
< 200 ft
Simboli :   Temporali  Nebbia  Neve Forte  Precipitazioni Forti  Vento > 20 kt
SIGMETs :   Varie  Temporali  Ghiacco  Turbolenza  Onda orograficha  Ceneri Vulcaniche






- Altitudine del aeroporto : 38 ft
- Codice IATA : ADX


EGQL - RAF Leuchars

ULTIMO METAR :
  • 221625Z 28024G40KT 9999 VCSH FEW015 SCT022 03/01 Q1001 WHT

METARs OBSOLETI :
  • 221550Z 26026KT 9999 VCSH FEW020 04/01 Q1001 BLU
  • 221450Z 26028G40KT 9999 7000SW SHRASN FEW011 SCT019 04/01 Q1000 WHT

TAF TAF EGQL
Valido dal 22 a 15 ore il 23 a 00 ore UTC


221341Z 2215/2224 25020G30KT 9999 FEW023
TEMPO 2215/2221 26028G40KT 5000 -SHRASN SCT015CB BKN020
PROB30
TEMPO 2215/2221 3000 SHRASN BKN015CB



MetMap, La meteo Aeronautica in un colpo d'occhio ! - Copyright ORBIFLY Dicembre 2007 - Disclaimer

ORBIFLY MET'MAP TEAM :

Programmazione e sviluppo : Alexandra Zaïnal
Concezione : Baudouin d'Aumeries
Aiuto per la programmazione : Marc-Olivier Méhu
Supporto tecnico e logistico : Manuel Goepfert
Aiuto per la traduzione : Arnaldo La Scala

Contatto : metmap@orbifly.com




FONTI E CREDITI :

   NOAA